Latest Weather Observations for Wynyard

IDT60801

Issued at 10:32 pm EDT Tuesday 28 March 2017 (issued every 30 minutes, with the page automatically refreshed every 10 minutes)

About weather observations | Map of weather stations | Latest weather observations for TAS | Other Formats
Station Details ID: 091107 Name: WYNYARD AIRPORT Lat: -41.00 Lon: 145.73 Height: 12.0 m
Data from the previous 72 hours. | See also: Recent months at Wynyard
Date/Time
EDT
Temp
°C
App
Temp
°C
Dew
Point
°C
Rel
Hum
%
Delta-T
°C
Wind Press
QNH
hPa
Press
MSL
hPa
Rain since
9am
mm
Dir  Spd
km/h
Gust
km/h
Spd
kts
Gust
kts
28/10:30pm 15.4 14.3 12.0 80 1.8 WNW 9 13 5 7 1009.6 1009.6 0.0
28/10:00pm 15.7 13.9 12.1 79 2.0 WNW 13 19 7 10 1009.8 1009.8 0.0
28/09:30pm 15.7 13.5 12.1 79 2.0 W 15 19 8 10 1009.9 1009.9 0.0
28/09:00pm 16.0 14.2 12.0 77 2.2 WNW 13 17 7 9 1009.9 1009.9 0.0
28/08:30pm 16.1 13.7 11.5 74 2.5 WNW 15 19 8 10 1009.7 1009.7 0.0
28/08:00pm 16.6 14.2 11.5 72 2.8 NW 15 22 8 12 1009.4 1009.4 0.0
28/07:30pm 16.4 14.0 11.3 72 2.7 W 15 20 8 11 1009.1 1009.1 0.0
28/07:00pm 16.8 13.0 11.1 69 3.1 WNW 22 32 12 17 1009.1 1009.1 0.0
28/06:30pm 17.3 14.1 11.1 67 3.3 WNW 19 24 10 13 1009.1 1009.1 0.0
28/06:00pm 17.7 13.9 11.0 65 3.6 WNW 22 30 12 16 1008.9 1008.9 0.0
28/05:30pm 18.3 14.3 10.4 60 4.2 WNW 22 35 12 19 1008.9 1008.9 0.0
28/05:00pm 18.5 13.2 9.8 57 4.6 W 28 37 15 20 1008.8 1008.8 0.0
28/04:30pm 18.2 14.1 11.3 64 3.8 WNW 24 32 13 17 1008.8 1008.8 0.0
28/04:00pm 18.5 13.5 11.1 62 4.0 W 28 35 15 19 1008.9 1008.9 0.0
28/03:30pm 18.4 15.0 12.4 68 3.3 WNW 22 32 12 17 1009.0 1009.0 0.0
28/03:00pm 18.8 15.4 12.5 67 3.5 W 22 33 12 18 1009.1 1009.1 0.0
28/02:30pm 18.1 12.9 11.7 66 3.5 WNW 30 41 16 22 1009.2 1009.2 0.0
28/02:00pm 19.0 15.8 13.0 68 3.4 WNW 22 32 12 17 1009.4 1009.4 0.0
28/01:47pm 19.1 14.9 13.5 70 3.2 WNW 28 46 15 25 1009.5 1009.5 0.0
28/01:30pm 17.7 12.5 11.7 68 3.3 WNW 30 39 16 21 1009.7 1009.7 0.0
28/01:00pm 17.2 12.5 12.1 72 2.8 W 28 41 15 22 1010.1 1010.1 0.0
28/12:47pm 18.3 14.0 13.2 72 2.9 W 28 48 15 26 1010.2 1010.2 0.0
28/12:30pm 17.8 13.3 12.7 72 2.8 W 28 37 15 20 1010.5 1010.5 0.0
28/12:00pm 17.3 15.0 13.0 76 2.4 WNW 17 24 9 13 1010.7 1010.7 0.0
28/11:30am 17.4 14.3 12.1 71 2.9 NW 20 28 11 15 1010.8 1010.8 0.0
28/11:00am 17.2 14.2 12.1 72 2.8 W 19 30 10 16 1010.9 1010.9 0.0
28/10:30am 16.6 13.7 12.4 76 2.3 WNW 19 28 10 15 1010.9 1010.9 0.0
28/10:00am 16.1 13.1 11.9 76 2.3 W 19 24 10 13 1010.7 1010.7 0.0
28/09:30am 16.1 13.0 12.1 77 2.2 W 20 24 11 13 1010.5 1010.5 0.0
28/09:00am 14.7 11.1 11.7 82 1.6 W 22 30 12 16 1010.3 1010.3 8.2
28/08:30am 14.5 11.9 12.0 85 1.4 W 17 22 9 12 1010.3 1010.3 8.2
28/08:00am 13.2 10.4 11.4 89 1.0 W 17 20 9 11 1009.7 1009.7 8.2
28/07:30am 13.3 10.3 11.9 91 0.7 W 19 26 10 14 1009.8 1009.8 8.2
28/07:00am 11.2 9.9 10.1 93 0.6 WSW 7 9 4 5 1009.4 1009.4 8.2
28/06:36am 12.2 10.0 10.9 92 0.7 W 13 17 7 9 1009.3 1009.3 8.2
28/06:30am 12.6 9.8 11.3 92 0.7 W 17 20 9 11 1009.3 1009.3 8.2
28/06:13am 12.6 11.5 11.8 95 0.4 SSW 9 24 5 13 1009.4 1009.4 8.2
28/06:00am 11.5 10.6 10.7 95 0.4 S 6 7 3 4 1009.3 1009.3 8.0
28/05:30am 11.3 10.2 10.7 96 0.3 SW 7 9 4 5 1009.1 1009.1 8.0
28/05:00am 9.8 9.3 9.2 96 0.3 SSW 2 6 1 3 1008.8 1008.8 8.0
28/04:30am 9.6 8.2 8.8 95 0.4 SW 6 7 3 4 1008.7 1008.7 8.0
28/04:00am 10.2 9.8 9.6 96 0.3 SW 2 7 1 4 1008.6 1008.6 8.0
28/03:30am 9.8 9.6 9.0 95 0.4 CALM 0 6 0 3 1008.5 1008.5 8.0
28/03:00am 10.2 9.3 9.3 94 0.4 SSW 4 7 2 4 1008.7 1008.7 8.0
28/02:30am 10.8 9.6 9.7 93 0.6 S 6 7 3 4 1008.8 1008.8 8.0
28/02:00am 11.3 10.1 9.6 89 0.9 WSW 6 11 3 6 1008.8 1008.8 8.0
28/01:30am 12.7 10.8 10.4 86 1.2 NW 11 15 6 8 1008.7 1008.7 8.0
28/01:00am 13.2 10.1 10.4 83 1.5 WNW 17 20 9 11 1008.5 1008.5 8.0
28/12:30am 13.2 9.8 10.6 84 1.4 W 19 24 10 13 1008.5 1008.5 8.0
28/12:00am 12.7 9.7 10.8 88 1.0 WNW 17 19 9 10 1008.3 1008.3 8.0
 
Date/Time
EDT
Temp
°C
App
Temp
°C
Dew
Point
°C
Rel
Hum
%
Delta-T
°C
Wind Press
QNH
hPa
Press
MSL
hPa
Rain since
9am
mm
Dir  Spd
km/h
Gust
km/h
Spd
kts
Gust
kts
27/11:30pm 12.7 10.0 10.2 85 1.3 WNW 15 17 8 9 1008.3 1008.3 8.0
27/11:00pm 13.1 10.5 10.6 85 1.3 W 15 20 8 11 1008.4 1008.4 8.0
27/10:30pm 14.3 11.5 11.5 83 1.5 WNW 17 24 9 13 1008.3 1008.3 8.0
27/10:00pm 14.4 11.6 11.4 82 1.6 WNW 17 22 9 12 1008.0 1008.0 8.0
27/09:30pm 14.5 11.1 11.3 81 1.7 W 20 24 11 13 1007.6 1007.6 8.0
27/09:00pm 15.2 9.9 11.4 78 2.0 WNW 30 43 16 23 1007.1 1007.1 8.0
27/08:30pm 15.2 11.1 11.6 79 1.9 WNW 24 37 13 20 1006.6 1006.6 8.0
27/08:00pm 15.4 10.0 12.2 81 1.7 W 32 46 17 25 1006.3 1006.3 8.0
27/07:39pm 15.7 11.2 12.5 81 1.8 W 28 52 15 28 1005.9 1005.9 8.0
27/07:30pm 16.0 12.3 12.6 80 1.9 WNW 24 30 13 16 1005.7 1005.7 8.0
27/07:00pm 16.0 12.6 12.6 80 1.9 W 22 30 12 16 1005.8 1005.8 8.0
27/06:30pm 16.4 13.5 12.8 79 2.0 W 20 32 11 17 1005.2 1005.2 7.6
27/06:00pm 16.7 13.5 13.0 79 2.1 WNW 22 28 12 15 1005.0 1005.0 7.6
27/05:30pm 16.4 12.8 12.9 80 1.9 WNW 24 28 13 15 1005.0 1005.0 7.6
27/05:00pm 16.9 13.4 13.4 80 2.0 WNW 24 33 13 18 1004.7 1004.7 7.6
27/04:30pm 15.7 12.9 13.2 85 1.4 WNW 20 28 11 15 1004.7 1004.7 7.6
27/04:00pm 14.7 10.8 12.0 84 1.5 WNW 24 30 13 16 1004.7 1004.7 7.6
27/03:30pm 14.3 8.9 12.3 88 1.1 WNW 32 44 17 24 1004.0 1004.0 7.4
27/03:21pm 14.7 9.8 12.4 86 1.3 WNW 30 43 16 23 1004.6 1004.6 6.8
27/03:00pm 15.0 11.1 13.2 89 1.0 W 26 39 14 21 1003.3 1003.3 5.8
27/02:48pm 15.4 8.9 12.9 85 1.4 W 39 54 21 29 1003.6 1003.6 5.4
27/02:37pm 16.1 10.5 13.4 84 1.5 W 35 52 19 28 1003.4 1003.4 5.0
27/02:30pm 16.6 10.4 13.7 83 1.6 W 39 63 21 34 1003.1 1003.1 4.6
27/02:05pm 18.0 13.2 14.1 78 2.2 W 32 50 17 27 1003.5 1003.5 4.4
27/02:00pm 17.9 13.4 14.8 82 1.8 W 32 43 17 23 1002.9 1002.9 4.4
27/01:44pm 17.8 13.8 15.1 84 1.6 W 30 46 16 25 1003.2 1003.2 4.4
27/01:30pm 18.4 14.5 15.6 84 1.6 W 30 61 16 33 1003.8 1003.8 4.0
27/01:26pm 18.9 18.0 17.7 93 0.7 NNW 19 52 10 28 1003.9 1003.9 4.0
27/01:21pm 19.4 20.2 18.2 93 0.7 NNE 11 15 6 8 1002.7 1002.7 2.8
27/01:20pm 19.5 20.3 18.2 92 0.8 NE 11 15 6 8 1002.6 1002.6 2.6
27/01:00pm 19.4 20.2 18.2 93 0.7 ENE 11 22 6 12 1002.0 1002.0 2.2
27/12:48pm 19.5 20.0 18.3 93 0.7 E 13 20 7 11 1002.0 1002.0 2.2
27/12:30pm 19.7 19.5 18.5 93 0.7 E 17 24 9 13 1001.9 1001.9 2.2
27/12:00pm 19.8 19.0 18.5 92 0.8 E 20 33 11 18 1002.0 1002.0 2.2
27/11:30am 19.2 17.8 18.0 93 0.7 ESE 22 30 12 16 1002.2 1002.2 2.2
27/11:00am 19.0 15.7 18.0 94 0.6 ESE 32 41 17 22 1002.1 1002.1 2.2
27/10:54am 18.9 16.3 17.9 94 0.6 E 28 39 15 21 1002.2 1002.2 2.2
27/10:48am 18.9 16.3 17.9 94 0.6 ESE 28 43 15 23 1002.5 1002.5 2.0
27/10:43am 19.0 16.5 18.0 94 0.6 ESE 28 37 15 20 1002.7 1002.7 2.0
27/10:30am 19.2 19.8 17.7 91 0.9 SE 11 17 6 9 1004.8 1004.8 1.2
27/10:26am 19.3 19.9 17.6 90 1.0 S 11 17 6 9 1005.0 1005.0 0.8
27/10:14am 19.3 18.1 17.4 89 1.2 ESE 20 30 11 16 1004.7 1004.7 0.0
27/10:00am 19.3 17.3 17.4 89 1.2 ESE 24 41 13 22 1002.7 1002.7 0.0
27/09:30am 19.3 18.2 17.8 91 0.9 E 20 30 11 16 1003.2 1003.2 0.0
27/09:00am 19.1 17.9 17.6 91 0.9 E 20 32 11 17 1004.2 1004.2 0.0
27/08:30am 19.1 18.2 17.8 92 0.8 E 19 28 10 15 1004.6 1004.6 0.0
27/08:00am 19.0 18.1 17.8 93 0.7 E 19 30 10 16 1005.2 1005.2 0.0
27/07:30am 18.9 17.9 17.6 92 0.8 E 19 26 10 14 1005.6 1005.6 0.0
27/07:00am 18.9 18.7 17.6 92 0.8 E 15 24 8 13 1006.3 1006.3 0.0
27/06:30am 18.8 17.8 17.5 92 0.8 E 19 26 10 14 1006.6 1006.6 0.0
27/06:00am 18.8 17.8 17.5 92 0.8 E 19 28 10 15 1006.5 1006.5 0.0
27/05:30am 18.7 17.9 17.2 91 0.9 E 17 24 9 13 1007.3 1007.3 0.0
27/05:00am 18.7 17.1 17.4 92 0.8 ESE 22 30 12 16 1007.5 1007.5 0.0
27/04:30am 18.8 17.8 17.5 92 0.8 E 19 26 10 14 1007.8 1007.8 0.0
27/04:00am 18.9 18.3 17.6 92 0.8 E 17 24 9 13 1008.2 1008.2 0.0
27/03:30am 18.8 18.2 17.5 92 0.8 E 17 24 9 13 1008.6 1008.6 0.0
27/03:00am 18.7 17.6 17.2 91 0.9 E 19 30 10 16 1009.0 1009.0 0.0
27/02:30am 18.6 18.1 16.9 90 1.0 E 15 24 8 13 1009.8 1009.8 0.0
27/02:00am 18.6 17.7 16.9 90 1.0 E 17 24 9 13 1010.5 1010.5 0.0
27/01:30am 18.7 17.7 16.7 88 1.2 ENE 17 24 9 13 1011.0 1011.0 0.0
27/01:22am 18.7 18.2 16.9 89 1.1 ENE 15 24 8 13 1011.1 1011.1 0.0
27/01:00am 18.7 17.9 17.0 90 1.0 ENE 17 24 9 13 1011.4 1011.4 0.0
27/12:43am 18.7 18.2 16.9 89 1.1 ENE 15 24 8 13 1011.8 1011.8 0.0
27/12:30am 18.7 18.2 17.0 90 1.0 ENE 15 22 8 12 1012.0 1012.0 0.0
27/12:00am 18.6 18.0 16.6 88 1.2 E 15 24 8 13 1012.3 1012.3 0.0
 
Date/Time
EDT
Temp
°C
App
Temp
°C
Dew
Point
°C
Rel
Hum
%
Delta-T
°C
Wind Press
QNH
hPa
Press
MSL
hPa
Rain since
9am
mm
Dir  Spd
km/h
Gust
km/h
Spd
kts
Gust
kts
26/11:30pm 18.5 18.1 16.1 86 1.4 E 13 19 7 10 1012.9 1012.9 0.0
26/11:09pm 18.5 17.2 15.7 84 1.7 ENE 17 22 9 12 1013.2 1013.2 0.0
26/11:03pm 18.5 17.1 15.6 83 1.7 ENE 17 24 9 13 1013.2 1013.2 0.0
26/11:00pm 18.5 17.1 15.6 83 1.7 ENE 17 24 9 13 1013.2 1013.2 0.0
26/10:43pm 18.5 18.0 15.9 85 1.5 ENE 13 20 7 11 1013.2 1013.2 0.0
26/10:32pm 18.4 17.4 15.6 84 1.6 ENE 15 22 8 12 1013.2 1013.2 0.0
26/10:30pm 18.4 17.0 15.6 84 1.6 ENE 17 22 9 12 1013.2 1013.2 0.0
26/10:00pm 18.2 16.8 15.6 85 1.5 ENE 17 24 9 13 1013.4 1013.4 0.0
26/09:30pm 18.2 17.5 15.3 83 1.7 ENE 13 19 7 10 1013.5 1013.5 0.0
26/09:00pm 18.0 17.3 15.4 85 1.5 ENE 13 19 7 10 1013.4 1013.4 0.0
26/08:30pm 17.7 18.3 15.9 89 1.1 E 7 13 4 7 1013.1 1013.1 0.0
26/08:00pm 16.6 16.8 14.8 89 1.0 ESE 7 11 4 6 1013.1 1013.1 0.0
26/07:46pm 17.1 17.5 14.7 86 1.4 E 6 9 3 5 1013.3 1013.3 0.0
26/07:30pm 17.8 18.2 15.2 85 1.5 NE 7 9 4 5 1013.3 1013.3 0.0
26/07:00pm 18.7 18.8 15.4 81 1.9 NE 9 11 5 6 1013.2 1013.2 0.0
26/06:30pm 19.2 19.3 15.5 79 2.2 NE 9 13 5 7 1013.1 1013.1 0.0
26/06:00pm 19.8 19.5 15.4 76 2.6 NE 11 13 6 7 1013.1 1013.1 0.0
26/05:30pm 20.1 20.1 15.1 73 2.9 NNE 9 11 5 6 1013.1 1013.1 0.0
26/05:00pm 20.7 20.4 14.4 67 3.7 NE 9 13 5 7 1013.0 1013.0 0.0
26/04:30pm 20.7 20.3 15.3 71 3.2 NE 11 13 6 7 1013.1 1013.1 0.0
26/04:00pm 20.7 19.7 14.6 68 3.6 NE 13 17 7 9 1013.3 1013.3 0.0
26/03:30pm 20.9 20.0 14.8 68 3.6 NNE 13 17 7 9 1013.5 1013.5 0.0
26/03:00pm 20.9 19.8 15.4 71 3.3 NNE 15 19 8 10 1013.5 1013.5 0.0
26/02:30pm 21.6 21.1 15.0 66 3.9 NNE 11 15 6 8 1013.8 1013.8 0.0
26/02:00pm 21.3 20.5 14.0 63 4.2 NE 11 17 6 9 1014.3 1014.3 0.0
26/01:30pm 21.0 20.3 15.3 70 3.4 NNE 13 17 7 9 1014.6 1014.6 0.0
26/01:00pm 20.6 20.1 15.8 74 2.9 NE 13 17 7 9 1014.9 1014.9 0.0
26/12:30pm 20.3 19.7 15.7 75 2.7 NNE 13 17 7 9 1015.1 1015.1 0.0
26/12:00pm 20.2 19.7 15.8 76 2.6 NNE 13 15 7 8 1015.3 1015.3 0.0
26/11:30am 19.9 19.3 15.7 77 2.5 NNE 13 17 7 9 1015.5 1015.5 0.0
26/11:00am 20.4 20.0 15.2 72 3.1 NNE 11 15 6 8 1015.6 1015.6 0.0
26/10:30am 19.9 21.4 15.7 77 2.5 SW 2 9 1 5 1015.5 1015.5 0.0
26/10:00am 18.5 19.4 15.0 80 2.0 NW 4 7 2 4 1015.5 1015.5 0.0
26/09:30am 16.8 17.1 14.6 87 1.3 WNW 6 7 3 4 1015.2 1015.2 0.0
26/09:00am 14.9 15.6 14.4 97 0.3 W 4 6 2 3 1014.9 1014.9 1.0
26/08:30am 13.8 13.8 13.5 98 0.2 WNW 6 7 3 4 1014.9 1014.9 1.0
26/08:00am 11.4 10.4 10.9 97 0.3 W 7 9 4 5 1014.8 1014.8 1.0
26/07:49am 10.9 9.7 10.4 97 0.3 WNW 7 7 4 4 1014.7 1014.7 1.0
26/07:30am 11.9 10.7 11.6 98 0.2 W 9 9 5 5 1014.7 1014.7 1.0
26/07:00am 11.2 9.7 10.7 97 0.3 W 9 13 5 7 1014.2 1014.2 1.0
26/06:59am 11.3 9.9 10.8 97 0.3 W 9 13 5 7 1014.2 1014.2 1.0
26/06:36am 12.4 11.7 11.9 97 0.3 WNW 7 9 4 5 1013.7 1013.7 1.0
26/06:30am 12.0 11.1 11.4 96 0.3 WNW 7 9 4 5 1013.6 1013.6 1.0
26/06:26am 12.3 11.5 11.8 97 0.3 WNW 7 9 4 5 1013.6 1013.6 1.0
26/06:08am 12.1 10.9 11.5 96 0.3 W 9 9 5 5 1013.5 1013.5 1.0
26/06:00am 12.0 10.7 11.2 95 0.4 WNW 9 9 5 5 1013.4 1013.4 1.0
26/05:30am 13.1 12.5 12.2 94 0.5 WNW 7 9 4 5 1013.0 1013.0 1.0
26/05:00am 14.6 14.6 13.5 93 0.6 W 6 7 3 4 1012.8 1012.8 1.0
26/04:30am 15.1 16.0 14.1 94 0.6 WSW 2 7 1 4 1013.0 1013.0 1.0
26/04:00am 15.3 15.0 14.3 94 0.6 W 9 11 5 6 1013.1 1013.1 1.0
26/03:30am 15.5 15.2 14.5 94 0.6 WNW 9 11 5 6 1013.3 1013.3 1.0
26/03:00am 15.3 15.0 14.5 95 0.5 WNW 9 11 5 6 1013.5 1013.5 1.0
26/02:30am 15.1 14.8 14.5 96 0.3 W 9 11 5 6 1013.7 1013.7 1.0
26/02:00am 14.9 14.2 14.3 96 0.3 W 11 13 6 7 1013.3 1013.3 1.0
26/01:30am 15.0 15.1 14.5 97 0.3 WSW 7 7 4 4 1013.2 1013.2 1.0
26/01:00am 13.8 13.5 13.2 96 0.3 W 7 11 4 6 1013.6 1013.6 1.0
26/12:30am 13.6 13.1 12.8 95 0.4 W 7 9 4 5 1013.7 1013.7 1.0
26/12:00am 14.7 14.6 13.9 95 0.4 WNW 7 9 4 5 1013.6 1013.6 1.0
 
Date/Time
EDT
Temp
°C
App
Temp
°C
Dew
Point
°C
Rel
Hum
%
Delta-T
°C
Wind Press
QNH
hPa
Press
MSL
hPa
Rain since
9am
mm
Dir  Spd
km/h
Gust
km/h
Spd
kts
Gust
kts
25/11:30pm 14.9 14.2 14.3 96 0.3 SW 11 15 6 8 1013.6 1013.6 1.0
25/11:00pm 14.5 14.5 13.5 94 0.6 S 6 11 3 6 1013.4 1013.4 1.0

Other Formats:

Comma delimited format used in spreadsheet applications
http://www.bom.gov.au/fwo/IDT60801/IDT60801.95957.axf

JavaScript Object Notation format (JSON) in row-major order
http://www.bom.gov.au/fwo/IDT60801/IDT60801.95957.json